createdAt,value
2016-07-26T00:00:23.701Z,0
2016-07-26T00:01:23.686Z,0
2016-07-26T00:02:23.668Z,0
2016-07-26T00:04:23.638Z,0
2016-07-26T00:05:23.616Z,0
2016-07-26T00:06:23.603Z,0
2016-07-26T00:07:23.583Z,0
2016-07-26T00:08:23.564Z,0
2016-07-26T00:09:23.551Z,0
2016-07-26T00:10:23.533Z,0
2016-07-26T00:11:23.517Z,0
2016-07-26T00:12:23.498Z,0
2016-07-26T00:13:23.480Z,0
2016-07-26T00:14:23.463Z,0
2016-07-26T00:15:23.450Z,0
2016-07-26T00:16:23.432Z,0
2016-07-26T00:17:23.414Z,0
2016-07-26T00:18:23.403Z,0
2016-07-26T00:19:23.380Z,0
2016-07-26T00:20:23.376Z,0
2016-07-26T00:21:23.347Z,0
2016-07-26T00:22:23.329Z,0
2016-07-26T00:23:23.312Z,0
2016-07-26T00:24:23.292Z,0
2016-07-26T00:25:23.278Z,0
2016-07-26T00:26:23.259Z,0
2016-07-26T00:27:23.247Z,0
2016-07-26T00:28:23.232Z,0
2016-07-26T00:29:23.210Z,0
2016-07-26T00:30:23.195Z,0
2016-07-26T00:31:23.175Z,0
2016-07-26T00:32:23.157Z,0
2016-07-26T00:33:23.138Z,0
2016-07-26T00:34:23.128Z,0
2016-07-26T00:35:23.108Z,0
2016-07-26T00:36:23.092Z,0
2016-07-26T00:37:23.089Z,0
2016-07-26T00:38:23.056Z,0
2016-07-26T00:39:23.040Z,0
2016-07-26T00:40:23.025Z,0
2016-07-26T00:41:23.009Z,0
2016-07-26T00:42:22.986Z,0
2016-07-26T00:43:22.984Z,0
2016-07-26T00:44:22.949Z,0
2016-07-26T00:45:22.939Z,0
2016-07-26T00:46:22.921Z,0
2016-07-26T00:47:22.904Z,0
2016-07-26T00:48:22.885Z,0
2016-07-26T00:49:22.869Z,0
2016-07-26T00:50:22.852Z,0
2016-07-26T00:51:22.847Z,0
2016-07-26T00:52:22.819Z,0
2016-07-26T00:53:22.797Z,0
2016-07-26T00:54:22.797Z,0
2016-07-26T00:55:22.771Z,0
2016-07-26T00:56:22.750Z,0
2016-07-26T00:57:22.732Z,0
2016-07-26T00:58:22.720Z,0
2016-07-26T00:59:22.697Z,0
2016-07-26T01:00:22.679Z,0
2016-07-26T01:01:22.664Z,0
2016-07-26T01:02:22.645Z,0
2016-07-26T01:03:22.629Z,0
2016-07-26T01:04:22.619Z,0
2016-07-26T01:05:22.594Z,0
2016-07-26T01:06:22.576Z,0
2016-07-26T01:07:22.560Z,0
2016-07-26T01:08:22.546Z,0
2016-07-26T01:09:22.523Z,0
2016-07-26T01:10:22.511Z,0
2016-07-26T01:11:22.495Z,0
2016-07-26T01:12:22.470Z,0
2016-07-26T01:13:22.455Z,0
2016-07-26T01:14:22.446Z,0
2016-07-26T01:15:22.422Z,0
2016-07-26T01:16:22.400Z,0
2016-07-26T01:17:22.384Z,0
2016-07-26T01:18:22.365Z,0
2016-07-26T01:19:22.349Z,0
2016-07-26T01:20:22.340Z,0
2016-07-26T01:21:22.312Z,0
2016-07-26T01:22:22.291Z,0
2016-07-26T01:23:22.274Z,0
2016-07-26T01:24:22.267Z,0
2016-07-26T01:25:22.246Z,0
2016-07-26T01:26:22.222Z,0
2016-07-26T01:27:22.205Z,0
2016-07-26T01:28:22.186Z,0
2016-07-26T01:29:22.168Z,0
2016-07-26T01:30:22.148Z,0
2016-07-26T01:31:22.130Z,0
2016-07-26T01:32:22.801Z,0
2016-07-26T01:33:22.092Z,0
2016-07-26T01:34:22.072Z,0
2016-07-26T01:35:22.105Z,0
2016-07-26T01:36:22.035Z,0
2016-07-26T01:37:22.016Z,0
2016-07-26T01:38:22.001Z,0
2016-07-26T01:39:21.980Z,0
2016-07-26T01:40:21.964Z,0
2016-07-26T01:41:21.945Z,0
2016-07-26T01:42:21.920Z,0
2016-07-26T01:43:21.908Z,0
2016-07-26T01:44:21.884Z,0
2016-07-26T01:45:22.559Z,0
2016-07-26T01:46:21.853Z,0
2016-07-26T01:47:21.826Z,0
2016-07-26T01:48:21.812Z,0
2016-07-26T01:49:21.789Z,0
2016-07-26T01:50:21.774Z,0
2016-07-26T01:51:21.755Z,0
2016-07-26T01:52:21.736Z,0
2016-07-26T01:53:21.716Z,0
2016-07-26T01:54:21.694Z,0
2016-07-26T01:55:21.682Z,0
2016-07-26T01:56:21.659Z,0
2016-07-26T01:57:21.640Z,0
2016-07-26T01:58:21.621Z,0
2016-07-26T01:59:21.606Z,0
2016-07-26T02:00:21.584Z,0
2016-07-26T02:01:21.577Z,0
2016-07-26T02:02:21.545Z,0
2016-07-26T02:03:21.528Z,0
2016-07-26T02:04:21.506Z,0
2016-07-26T02:05:21.498Z,0
2016-07-26T02:06:21.466Z,0
2016-07-26T02:07:21.451Z,0
2016-07-26T02:08:21.441Z,0
2016-07-26T02:09:21.522Z,0
2016-07-26T02:10:21.398Z,0
2016-07-26T02:11:21.379Z,0
2016-07-26T02:12:21.367Z,0
2016-07-26T02:13:21.340Z,0
2016-07-26T02:14:21.322Z,0
2016-07-26T02:15:21.299Z,0
2016-07-26T02:16:21.282Z,0
2016-07-26T02:17:21.264Z,0
2016-07-26T02:18:21.246Z,0
2016-07-26T02:19:21.227Z,0
2016-07-26T02:20:21.205Z,0
2016-07-26T02:21:21.186Z,0
2016-07-26T02:22:21.172Z,0
2016-07-26T02:23:21.149Z,0
2016-07-26T02:24:21.130Z,0
2016-07-26T02:25:21.112Z,0
2016-07-26T02:26:21.092Z,0
2016-07-26T02:27:21.073Z,0
2016-07-26T02:28:21.055Z,0
2016-07-26T02:29:21.036Z,0
2016-07-26T02:30:21.024Z,0
2016-07-26T02:31:21.004Z,0
2016-07-26T02:32:20.979Z,0
2016-07-26T02:33:20.969Z,0
2016-07-26T02:34:20.944Z,0
2016-07-26T02:35:21.616Z,0
2016-07-26T02:36:20.901Z,0
2016-07-26T02:37:20.889Z,0
2016-07-26T02:38:20.869Z,0
2016-07-26T02:39:20.855Z,0
2016-07-26T02:40:20.830Z,0
2016-07-26T02:41:20.815Z,0
2016-07-26T02:42:20.798Z,0
2016-07-26T02:43:20.778Z,0
2016-07-26T02:44:20.756Z,0
2016-07-26T02:45:20.741Z,0
2016-07-26T02:46:20.717Z,0
2016-07-26T02:47:21.400Z,0
2016-07-26T02:48:20.679Z,0
2016-07-26T02:49:20.665Z,0
2016-07-26T02:50:20.660Z,0
2016-07-26T02:51:20.631Z,0
2016-07-26T02:52:20.611Z,0
2016-07-26T02:53:20.591Z,0
2016-07-26T02:54:20.569Z,0
2016-07-26T02:55:20.555Z,0
2016-07-26T02:56:20.536Z,0
2016-07-26T02:57:20.517Z,0
2016-07-26T02:58:20.499Z,0
2016-07-26T02:59:20.482Z,0
2016-07-26T03:00:20.462Z,0
2016-07-26T03:01:20.442Z,0
2016-07-26T03:02:20.423Z,4
2016-07-26T03:03:20.405Z,4
2016-07-26T03:04:20.391Z,4
2016-07-26T03:05:20.364Z,0
2016-07-26T03:06:20.351Z,4
2016-07-26T03:07:20.333Z,4
2016-07-26T03:08:20.311Z,4
2016-07-26T03:09:20.291Z,8
2016-07-26T03:10:20.291Z,8
2016-07-26T03:11:20.257Z,8
2016-07-26T03:12:20.238Z,8
2016-07-26T03:13:20.220Z,8
2016-07-26T03:14:20.203Z,12
2016-07-26T03:15:20.181Z,12
2016-07-26T03:16:20.163Z,16
2016-07-26T03:17:20.143Z,20
2016-07-26T03:18:20.126Z,20
2016-07-26T03:20:20.786Z,28
2016-07-26T03:21:20.070Z,32
2016-07-26T03:22:20.052Z,32
2016-07-26T03:23:20.031Z,40
2016-07-26T03:24:20.011Z,44
2016-07-26T03:25:19.994Z,52
2016-07-26T03:26:19.977Z,60
2016-07-26T03:27:19.957Z,64
2016-07-26T03:28:19.938Z,76
2016-07-26T03:29:19.920Z,88
2016-07-26T03:30:19.895Z,96
2016-07-26T03:31:19.889Z,112
2016-07-26T03:32:19.873Z,128
2016-07-26T03:33:19.842Z,140
2016-07-26T03:35:19.806Z,176
2016-07-26T03:36:19.789Z,188
2016-07-26T03:37:19.771Z,208
2016-07-26T03:38:19.751Z,224
2016-07-26T03:39:19.734Z,240
2016-07-26T03:40:19.708Z,252
2016-07-26T03:41:19.696Z,264
2016-07-26T03:42:19.674Z,272
2016-07-26T03:43:19.654Z,288
2016-07-26T03:44:19.636Z,308
2016-07-26T03:45:19.614Z,332
2016-07-26T03:46:19.598Z,364
2016-07-26T03:47:19.579Z,392
2016-07-26T03:48:19.558Z,424
2016-07-26T03:50:19.523Z,500
2016-07-26T03:51:19.506Z,536
2016-07-26T03:52:19.487Z,580
2016-07-26T03:53:19.467Z,620
2016-07-26T03:54:19.450Z,660
2016-07-26T03:55:19.425Z,696
2016-07-26T03:56:19.424Z,732
2016-07-26T03:57:19.395Z,768
2016-07-26T03:58:19.372Z,804
2016-07-26T03:59:19.357Z,836
2016-07-26T04:00:19.330Z,872
2016-07-26T04:01:19.315Z,912
2016-07-26T04:02:19.294Z,952
2016-07-26T04:03:19.274Z,992
2016-07-26T04:05:19.238Z,1052
2016-07-26T04:06:19.225Z,1088
2016-07-26T04:07:19.198Z,1148
2016-07-26T04:08:19.199Z,1216
2016-07-26T04:09:19.173Z,1264
2016-07-26T04:10:19.150Z,1320
2016-07-26T04:11:19.132Z,1392
2016-07-26T04:12:19.113Z,1472
2016-07-26T04:13:19.091Z,1572
2016-07-26T04:14:19.072Z,1664
2016-07-26T04:15:19.056Z,1728
2016-07-26T04:16:19.036Z,1804
2016-07-26T04:17:19.011Z,1872
2016-07-26T04:18:19.009Z,1912
2016-07-26T04:20:18.962Z,2096
2016-07-26T04:21:18.939Z,2192
2016-07-26T04:22:18.925Z,2288
2016-07-26T04:23:18.905Z,2332
2016-07-26T04:24:18.886Z,2344
2016-07-26T04:25:18.867Z,2452
2016-07-26T04:26:18.850Z,2628
2016-07-26T04:27:18.831Z,2728
2016-07-26T04:28:18.814Z,2816
2016-07-26T04:29:18.794Z,2928
2016-07-26T04:30:18.776Z,3032
2016-07-26T04:31:18.758Z,3220
2016-07-26T04:32:18.738Z,3432
2016-07-26T04:33:18.721Z,3508
2016-07-26T04:35:18.688Z,3508
2016-07-26T04:36:18.664Z,3668
2016-07-26T04:37:18.643Z,3844
2016-07-26T04:38:18.628Z,4088
2016-07-26T04:39:18.613Z,4520
2016-07-26T04:40:18.591Z,5024
2016-07-26T04:41:18.573Z,5408
2016-07-26T04:42:18.554Z,5564
2016-07-26T04:43:18.538Z,5412
2016-07-26T04:44:18.520Z,5092
2016-07-26T04:45:18.509Z,4764
2016-07-26T04:46:18.479Z,4524
2016-07-26T04:47:18.475Z,4388
2016-07-26T04:48:18.443Z,4372
2016-07-26T04:50:18.407Z,4548
2016-07-26T04:51:18.406Z,4624
2016-07-26T04:52:18.373Z,4676
2016-07-26T04:53:18.359Z,4728
2016-07-26T04:54:18.338Z,4788
2016-07-26T04:55:18.323Z,4800
2016-07-26T04:56:18.303Z,4816
2016-07-26T04:57:18.284Z,4788
2016-07-26T04:58:18.269Z,4760
2016-07-26T04:59:18.247Z,4808
2016-07-26T05:00:18.231Z,4904
2016-07-26T05:01:18.215Z,5024
2016-07-26T05:02:18.196Z,5116
2016-07-26T05:03:18.181Z,5232
2016-07-26T05:05:18.155Z,5636
2016-07-26T05:06:18.141Z,5828
2016-07-26T05:07:18.115Z,5972
2016-07-26T05:08:18.090Z,6088
2016-07-26T05:09:18.066Z,6344
2016-07-26T05:10:18.056Z,6740
2016-07-26T05:11:18.035Z,7208
2016-07-26T05:12:18.021Z,7584
2016-07-26T05:13:18.004Z,7932
2016-07-26T05:14:17.979Z,8076
2016-07-26T05:15:18.351Z,8252
2016-07-26T05:16:17.944Z,8348
2016-07-26T05:17:17.931Z,8296
2016-07-26T05:18:17.913Z,8200
2016-07-26T05:20:17.882Z,8184
2016-07-26T05:21:17.861Z,8220
2016-07-26T05:22:18.225Z,8364
2016-07-26T05:23:17.822Z,8436
2016-07-26T05:24:17.806Z,8460
2016-07-26T05:25:17.840Z,8988
2016-07-26T05:26:17.774Z,9232
2016-07-26T05:27:17.769Z,9336
2016-07-26T05:28:17.739Z,9716
2016-07-26T05:29:17.719Z,10440
2016-07-26T05:30:17.702Z,11328
2016-07-26T05:31:17.688Z,11920
2016-07-26T05:32:17.668Z,12532
2016-07-26T05:33:17.661Z,12096
2016-07-26T05:34:17.639Z,12012
2016-07-26T05:35:17.630Z,11880
2016-07-26T05:36:17.596Z,12196
2016-07-26T05:37:17.586Z,12864
2016-07-26T05:38:17.568Z,13860
2016-07-26T05:39:17.554Z,14636
2016-07-26T05:40:17.860Z,15056
2016-07-26T05:41:17.897Z,15220
2016-07-26T05:42:18.651Z,15224
2016-07-26T05:43:18.296Z,15188
2016-07-26T05:44:18.570Z,15112
2016-07-26T05:45:17.447Z,14712
2016-07-26T05:46:17.430Z,14092
2016-07-26T05:47:17.423Z,13544
2016-07-26T05:48:17.400Z,13420
2016-07-26T05:50:17.368Z,13740
2016-07-26T05:51:17.369Z,14156
2016-07-26T05:52:17.498Z,14544
2016-07-26T05:53:17.316Z,14652
2016-07-26T05:54:17.300Z,14804
2016-07-26T05:55:17.287Z,15048
2016-07-26T05:56:17.270Z,15328
2016-07-26T05:57:17.251Z,15772
2016-07-26T05:58:17.237Z,16340
2016-07-26T05:59:17.222Z,16036
2016-07-26T06:00:17.208Z,15680
2016-07-26T06:01:17.194Z,15312
2016-07-26T06:02:17.237Z,15172
2016-07-26T06:03:17.753Z,14648
2016-07-26T06:05:17.128Z,16508
2016-07-26T06:06:17.114Z,16888
2016-07-26T06:07:17.108Z,17824
2016-07-26T06:08:17.086Z,18080
2016-07-26T06:09:17.068Z,18016
2016-07-26T06:10:17.520Z,18816
2016-07-26T06:11:17.083Z,18432
2016-07-26T06:12:17.101Z,17856
2016-07-26T06:13:17.007Z,17888
2016-07-26T06:14:17.011Z,18976
2016-07-26T06:15:17.193Z,21120
2016-07-26T06:16:16.984Z,21888
2016-07-26T06:17:16.950Z,21280
2016-07-26T06:18:19.679Z,19936
2016-07-26T06:19:16.981Z,20032
2016-07-26T06:20:16.904Z,20128
2016-07-26T06:21:16.890Z,16872
2016-07-26T06:22:16.890Z,17856
2016-07-26T06:23:16.857Z,18528
2016-07-26T06:24:16.872Z,24000
2016-07-26T06:25:17.233Z,21920
2016-07-26T06:26:17.273Z,24672
2016-07-26T06:27:17.940Z,21952
2016-07-26T06:28:17.615Z,22336
2016-07-26T06:29:17.591Z,22880
2016-07-26T06:30:17.890Z,25440
2016-07-26T06:31:17.115Z,25792
2016-07-26T06:32:17.839Z,22080
2016-07-26T06:33:16.967Z,23264
2016-07-26T06:35:17.150Z,25504
2016-07-26T06:36:17.230Z,27584
2016-07-26T06:37:17.036Z,28384
2016-07-26T06:38:16.946Z,27616
2016-07-26T06:39:16.976Z,25440
2016-07-26T06:40:16.626Z,24864
2016-07-26T06:41:16.624Z,25728
2016-07-26T06:42:17.387Z,25472
2016-07-26T06:43:17.572Z,24384
2016-07-26T06:44:17.118Z,23680
2016-07-26T06:45:17.171Z,24640
2016-07-26T06:46:17.103Z,25888
2016-07-26T06:47:16.614Z,23168
2016-07-26T06:48:17.738Z,25216
2016-07-26T06:50:17.078Z,25824
2016-07-26T06:51:16.906Z,25056
2016-07-26T06:52:18.190Z,24416
2016-07-26T06:53:16.901Z,24288
2016-07-26T06:54:17.329Z,22272
2016-07-26T06:55:16.875Z,20608
2016-07-26T06:56:16.635Z,18368
2016-07-26T06:57:17.346Z,16888
2016-07-26T06:58:18.123Z,17728
2016-07-26T06:59:16.938Z,19840
2016-07-26T07:00:19.358Z,23808
2016-07-26T07:01:16.864Z,25728
2016-07-26T07:02:17.886Z,28320
2016-07-26T07:03:18.683Z,27584
2016-07-26T07:05:18.945Z,24288
2016-07-26T07:06:17.527Z,26208
2016-07-26T07:07:18.201Z,24832
2016-07-26T07:08:18.710Z,23872
2016-07-26T07:09:18.021Z,25568
2016-07-26T07:10:18.027Z,27840
2016-07-26T07:11:17.830Z,26432
2016-07-26T07:12:18.345Z,24288
2016-07-26T07:13:17.910Z,20608
2016-07-26T07:14:18.531Z,17728
2016-07-26T07:15:18.938Z,16344
2016-07-26T07:16:18.096Z,16336
2016-07-26T07:17:18.745Z,17696
2016-07-26T07:18:18.269Z,18272
2016-07-26T07:20:18.898Z,17492
2016-07-26T07:21:18.931Z,18016
2016-07-26T07:22:17.788Z,20032
2016-07-26T07:23:18.195Z,18304
2016-07-26T07:24:18.271Z,18144
2016-07-26T07:25:20.373Z,18304
2016-07-26T07:26:18.255Z,18464
2016-07-26T07:27:18.080Z,17728
2016-07-26T07:29:18.175Z,15524
2016-07-26T07:30:18.014Z,15452
2016-07-26T07:31:17.992Z,14928
2016-07-26T07:32:18.233Z,14284
2016-07-26T07:33:18.118Z,14220
2016-07-26T07:35:18.322Z,13936
2016-07-26T07:36:18.560Z,13692
2016-07-26T07:37:18.171Z,13508
2016-07-26T07:38:18.212Z,13616
2016-07-26T07:39:18.250Z,13792
2016-07-26T07:40:17.860Z,13736
2016-07-26T07:41:17.770Z,14168
2016-07-26T07:42:17.829Z,15628
2016-07-26T07:43:18.095Z,18272
2016-07-26T07:44:17.453Z,20032
2016-07-26T07:45:17.736Z,20448
2016-07-26T07:46:16.682Z,21280
2016-07-26T07:47:18.155Z,22944
2016-07-26T07:48:17.180Z,24480
2016-07-26T07:49:16.774Z,25664
2016-07-26T07:50:17.176Z,26144
2016-07-26T07:51:16.923Z,24640
2016-07-26T07:52:16.354Z,24480
2016-07-26T07:53:16.498Z,25536
2016-07-26T07:54:17.245Z,27040
2016-07-26T07:55:17.269Z,28576
2016-07-26T07:56:16.423Z,29728
2016-07-26T07:57:17.444Z,31840
2016-07-26T07:58:17.231Z,37632
2016-07-26T07:59:16.819Z,43872
2016-07-26T08:00:17.516Z,37248
2016-07-26T08:01:17.123Z,25376
2016-07-26T08:02:17.536Z,23328
2016-07-26T08:03:17.146Z,21056
2016-07-26T08:05:16.938Z,16660
2016-07-26T08:06:17.014Z,16292
2016-07-26T08:07:18.048Z,16496
2016-07-26T08:08:16.595Z,17016
2016-07-26T08:09:17.153Z,18304
2016-07-26T08:10:16.597Z,20864
2016-07-26T08:11:16.982Z,19136
2016-07-26T08:12:16.517Z,17884
2016-07-26T08:13:16.529Z,17876
2016-07-26T08:14:15.945Z,23488
2016-07-26T08:15:17.131Z,20576
2016-07-26T08:16:15.695Z,17880
2016-07-26T08:17:16.491Z,18880
2016-07-26T08:18:15.927Z,19936
2016-07-26T08:19:15.829Z,21760
2016-07-26T08:20:16.594Z,23776
2016-07-26T08:21:17.247Z,23712
2016-07-26T08:22:16.243Z,22304
2016-07-26T08:23:15.902Z,21056
2016-07-26T08:24:16.435Z,20000
2016-07-26T08:25:16.534Z,19744
2016-07-26T08:26:15.864Z,20608
2016-07-26T08:27:15.374Z,23008
2016-07-26T08:28:16.904Z,24864
2016-07-26T08:29:16.068Z,27232
2016-07-26T08:30:16.389Z,28960
2016-07-26T08:31:15.979Z,28832
2016-07-26T08:32:16.797Z,28928
2016-07-26T08:33:17.152Z,28352
2016-07-26T08:35:15.623Z,27072
2016-07-26T08:36:15.504Z,26752
2016-07-26T08:37:15.327Z,26176
2016-07-26T08:38:15.094Z,24800
2016-07-26T08:39:16.436Z,24416
2016-07-26T08:40:16.121Z,25664
2016-07-26T08:41:15.663Z,26624
2016-07-26T08:42:15.045Z,26048
2016-07-26T08:43:15.039Z,27552
2016-07-26T08:44:16.131Z,28864
2016-07-26T08:45:16.560Z,30016
2016-07-26T08:46:16.134Z,30848
2016-07-26T08:47:16.916Z,31712
2016-07-26T08:48:17.594Z,32576
2016-07-26T08:49:17.073Z,33056
2016-07-26T08:50:15.220Z,33824
2016-07-26T08:51:15.717Z,33664
2016-07-26T08:52:15.566Z,33216
2016-07-26T08:53:15.122Z,30624
2016-07-26T08:54:18.643Z,26208
2016-07-26T08:55:49.301Z,25952
2016-07-26T08:56:18.422Z,26688
2016-07-26T08:57:18.187Z,63136
2016-07-26T08:58:17.916Z,54048
2016-07-26T08:59:19.405Z,65472
2016-07-26T09:00:17.700Z,44224
2016-07-26T09:01:18.100Z,50624
2016-07-26T09:02:17.595Z,44768
2016-07-26T09:03:16.912Z,43328
2016-07-26T09:04:15.533Z,45664
2016-07-26T09:05:16.472Z,49120
2016-07-26T09:06:16.064Z,51040
2016-07-26T09:07:15.080Z,49856
2016-07-26T09:08:15.250Z,44640
2016-07-26T09:09:14.956Z,42560
2016-07-26T09:10:18.295Z,36672
2016-07-26T09:11:17.017Z,35456
2016-07-26T09:12:16.135Z,32480
2016-07-26T09:13:15.357Z,31776
2016-07-26T09:14:15.466Z,41120
2016-07-26T09:15:15.721Z,37152
2016-07-26T09:16:15.072Z,34432
2016-07-26T09:17:15.367Z,35424
2016-07-26T09:18:17.851Z,30304
2016-07-26T09:19:15.808Z,32864
2016-07-26T09:20:16.511Z,29280
2016-07-26T09:21:14.614Z,28384
2016-07-26T09:22:17.208Z,30400
2016-07-26T09:23:17.028Z,34176
2016-07-26T09:24:16.886Z,34112
2016-07-26T09:25:16.630Z,36544
2016-07-26T09:26:17.699Z,36288
2016-07-26T09:27:17.043Z,36480
2016-07-26T09:28:15.711Z,43776
2016-07-26T09:29:15.883Z,37472
2016-07-26T09:30:15.981Z,36896
2016-07-26T09:31:16.208Z,38752
2016-07-26T09:32:16.821Z,37600
2016-07-26T09:33:17.446Z,40000
2016-07-26T09:34:16.080Z,61312
2016-07-26T09:35:16.384Z,35712
2016-07-26T09:36:17.937Z,30272
2016-07-26T09:37:16.002Z,31616
2016-07-26T09:38:16.360Z,33952
2016-07-26T09:39:16.130Z,35840
2016-07-26T09:40:17.138Z,36608
2016-07-26T09:41:15.701Z,42304
2016-07-26T09:42:16.029Z,45088
2016-07-26T09:43:15.826Z,58240
2016-07-26T09:44:15.970Z,47264
2016-07-26T09:45:15.570Z,58112
2016-07-26T09:46:16.565Z,45376
2016-07-26T09:47:14.797Z,51968
2016-07-26T09:48:15.351Z,60320
2016-07-26T09:49:15.803Z,50240
2016-07-26T09:50:14.566Z,60544
2016-07-26T09:51:15.395Z,71872
2016-07-26T09:52:15.460Z,71200
2016-07-26T09:53:15.999Z,73312
2016-07-26T09:54:14.574Z,46144
2016-07-26T09:55:14.293Z,43040
2016-07-26T09:56:14.280Z,39296
2016-07-26T09:57:14.279Z,45600
2016-07-26T09:58:14.461Z,59616
2016-07-26T09:59:14.261Z,76800
2016-07-26T10:00:14.430Z,81120
2016-07-26T10:01:14.279Z,83168
2016-07-26T10:02:14.590Z,45184
2016-07-26T10:03:14.924Z,58560
2016-07-26T10:04:14.550Z,44032
2016-07-26T10:05:15.706Z,49248
2016-07-26T10:06:14.387Z,68800
2016-07-26T10:07:15.004Z,47488
2016-07-26T10:08:14.622Z,79520
2016-07-26T10:09:14.229Z,73568
2016-07-26T10:10:14.513Z,72832
2016-07-26T10:11:14.913Z,73984
2016-07-26T10:12:15.561Z,79392
2016-07-26T10:13:14.252Z,81248
2016-07-26T10:14:14.502Z,81536
2016-07-26T10:15:15.739Z,53536
2016-07-26T10:16:15.197Z,76608
2016-07-26T10:17:14.576Z,66848
2016-07-26T10:18:15.049Z,49152
2016-07-26T10:19:15.684Z,28992
2016-07-26T10:20:15.088Z,28864
2016-07-26T10:21:14.751Z,28576
2016-07-26T10:22:15.363Z,28608
2016-07-26T10:23:14.585Z,31488
2016-07-26T10:24:14.703Z,35776
2016-07-26T10:25:14.615Z,30464
2016-07-26T10:26:15.901Z,29696
2016-07-26T10:27:14.580Z,30528
2016-07-26T10:28:15.379Z,31776
2016-07-26T10:29:14.067Z,30720
2016-07-26T10:30:14.435Z,31392
2016-07-26T10:31:14.384Z,34112
2016-07-26T10:32:15.269Z,35392
2016-07-26T10:33:14.663Z,34336
2016-07-26T10:34:14.243Z,32544
2016-07-26T10:35:14.296Z,33152
2016-07-26T10:36:14.013Z,34368
2016-07-26T10:37:14.266Z,35232
2016-07-26T10:38:14.005Z,37056
2016-07-26T10:39:13.989Z,39840
2016-07-26T10:40:14.381Z,40128
2016-07-26T10:41:14.337Z,42592
2016-07-26T10:42:13.956Z,80736
2016-07-26T10:43:14.898Z,61280
2016-07-26T10:44:14.339Z,66048
2016-07-26T10:45:15.310Z,79904
2016-07-26T10:46:13.920Z,88864
2016-07-26T10:47:14.984Z,60288
2016-07-26T10:48:14.833Z,64512
2016-07-26T10:49:14.986Z,54528
2016-07-26T10:50:15.122Z,57824
2016-07-26T10:51:15.251Z,51584
2016-07-26T10:52:14.355Z,90720
2016-07-26T10:53:14.072Z,88352
2016-07-26T10:54:14.747Z,83872
2016-07-26T10:55:15.105Z,54720
2016-07-26T10:56:15.092Z,54080
2016-07-26T10:57:14.346Z,68960
2016-07-26T10:58:14.017Z,59040
2016-07-26T10:59:13.838Z,79936
2016-07-26T11:00:13.827Z,45760
2016-07-26T11:01:13.973Z,44512
2016-07-26T11:02:13.969Z,51840
2016-07-26T11:03:14.553Z,91904
2016-07-26T11:04:14.084Z,88992
2016-07-26T11:05:13.947Z,87136
2016-07-26T11:06:15.241Z,78976
2016-07-26T11:07:14.053Z,79328
2016-07-26T11:08:14.343Z,81440
2016-07-26T11:09:14.913Z,87744
2016-07-26T11:10:14.885Z,85792
2016-07-26T11:11:13.861Z,82304
2016-07-26T11:12:15.405Z,52960
2016-07-26T11:13:15.119Z,78688
2016-07-26T11:14:13.918Z,68192
2016-07-26T11:15:14.129Z,85920
2016-07-26T11:16:13.736Z,77440
2016-07-26T11:17:13.803Z,80416
2016-07-26T11:18:13.727Z,82944
2016-07-26T11:19:15.257Z,81856
2016-07-26T11:20:14.068Z,82752
2016-07-26T11:21:13.998Z,69984
2016-07-26T11:22:13.824Z,79936
2016-07-26T11:23:14.047Z,80704
2016-07-26T11:24:14.017Z,83456
2016-07-26T11:25:13.748Z,85568
2016-07-26T11:26:13.885Z,86016
2016-07-26T11:27:13.946Z,83936
2016-07-26T11:28:13.764Z,82048
2016-07-26T11:29:13.951Z,76256
2016-07-26T11:30:14.523Z,53024
2016-07-26T11:31:13.699Z,73568
2016-07-26T11:32:13.783Z,73952
2016-07-26T11:33:14.574Z,86656
2016-07-26T11:34:13.754Z,55712
2016-07-26T11:35:14.057Z,47808
2016-07-26T11:36:13.853Z,88448
2016-07-26T11:38:13.921Z,83072
2016-07-26T11:39:15.448Z,77376
2016-07-26T11:40:13.652Z,72832
2016-07-26T11:41:13.651Z,70368
2016-07-26T11:42:13.651Z,74560
2016-07-26T11:43:13.643Z,76672
2016-07-26T11:44:13.635Z,76000
2016-07-26T11:45:13.852Z,73504
2016-07-26T11:46:13.632Z,76384
2016-07-26T11:47:13.635Z,78432
2016-07-26T11:48:13.625Z,81600
2016-07-26T11:49:13.629Z,85888
2016-07-26T11:50:13.682Z,86176
2016-07-26T11:51:14.522Z,87392
2016-07-26T11:52:13.619Z,45728
2016-07-26T11:53:13.618Z,39584
2016-07-26T11:54:13.617Z,59904
2016-07-26T11:55:13.678Z,38240
2016-07-26T11:56:13.611Z,36800
2016-07-26T11:57:13.677Z,35616
2016-07-26T11:58:14.225Z,35520
2016-07-26T11:59:13.597Z,43328
2016-07-26T12:00:13.664Z,88160
2016-07-26T12:01:13.757Z,93504
2016-07-26T12:02:13.589Z,88736
2016-07-26T12:03:13.687Z,82592
2016-07-26T12:04:13.583Z,79904
2016-07-26T12:05:15.200Z,83808
2016-07-26T12:06:13.944Z,78560
2016-07-26T12:07:15.367Z,73408
2016-07-26T12:08:14.149Z,86208
2016-07-26T12:09:14.692Z,88544
2016-07-26T12:10:13.825Z,92544
2016-07-26T12:11:14.331Z,88064
2016-07-26T12:12:14.432Z,85216
2016-07-26T12:13:13.573Z,82880
2016-07-26T12:14:13.912Z,86624
2016-07-26T12:15:13.917Z,90464
2016-07-26T12:16:15.100Z,88832
2016-07-26T12:17:15.853Z,90400
2016-07-26T12:18:13.694Z,76992
2016-07-26T12:19:14.213Z,71616
2016-07-26T12:20:15.140Z,60608
2016-07-26T12:21:14.389Z,52736
2016-07-26T12:22:14.096Z,62400
2016-07-26T12:23:13.716Z,57024
2016-07-26T12:24:14.386Z,51264
2016-07-26T12:25:13.987Z,47456
2016-07-26T12:26:14.763Z,42720
2016-07-26T12:27:14.660Z,43776
2016-07-26T12:28:14.211Z,58944
2016-07-26T12:29:13.890Z,65504
2016-07-26T12:30:14.371Z,49600
2016-07-26T12:31:13.511Z,48064
2016-07-26T12:32:13.508Z,48352
2016-07-26T12:33:13.501Z,51136
2016-07-26T12:34:13.507Z,52096
2016-07-26T12:35:13.503Z,55040
2016-07-26T12:36:14.380Z,63104
2016-07-26T12:37:13.484Z,50240
2016-07-26T12:38:13.594Z,43328
2016-07-26T12:39:13.910Z,37216
2016-07-26T12:40:13.615Z,34816
2016-07-26T12:41:13.525Z,34400
2016-07-26T12:42:14.613Z,35488
2016-07-26T12:43:13.451Z,35360
2016-07-26T12:44:13.509Z,35744
2016-07-26T12:45:13.595Z,36288
2016-07-26T12:46:13.464Z,34272
2016-07-26T12:47:15.025Z,31424
2016-07-26T12:48:14.366Z,28800
2016-07-26T12:49:14.256Z,26144
2016-07-26T12:50:13.422Z,24640
2016-07-26T12:51:13.405Z,24160
2016-07-26T12:52:13.605Z,24352
2016-07-26T12:53:13.402Z,25056
2016-07-26T12:54:13.611Z,25792
2016-07-26T12:55:13.556Z,25024
2016-07-26T12:56:13.369Z,23136
2016-07-26T12:57:13.362Z,21504
2016-07-26T12:58:13.359Z,21344
2016-07-26T12:59:13.691Z,22912
2016-07-26T13:00:14.790Z,24256
2016-07-26T13:01:13.424Z,24864
2016-07-26T13:02:13.324Z,24864
2016-07-26T13:03:13.389Z,24544
2016-07-26T13:04:14.223Z,25056
2016-07-26T13:05:13.376Z,26848
2016-07-26T13:06:13.278Z,28672
2016-07-26T13:07:13.393Z,29600
2016-07-26T13:08:14.461Z,29792
2016-07-26T13:09:13.370Z,29824
2016-07-26T13:10:13.650Z,29984
2016-07-26T13:11:14.360Z,30080
2016-07-26T13:12:13.362Z,35648
2016-07-26T13:13:13.220Z,36512
2016-07-26T13:14:13.642Z,34464
2016-07-26T13:15:14.942Z,30016
2016-07-26T13:16:13.556Z,25344
2016-07-26T13:17:13.952Z,21984
2016-07-26T13:18:15.264Z,20992
2016-07-26T13:19:14.667Z,29632
2016-07-26T13:20:13.937Z,30656
2016-07-26T13:21:16.154Z,37696
2016-07-26T13:22:16.212Z,43968
2016-07-26T13:23:13.569Z,38144
2016-07-26T13:24:13.991Z,38240
2016-07-26T13:25:13.497Z,40000
2016-07-26T13:26:13.619Z,42112
2016-07-26T13:27:14.119Z,45152
2016-07-26T13:28:13.058Z,41408
2016-07-26T13:29:13.438Z,38272
2016-07-26T13:30:13.408Z,35968
2016-07-26T13:31:13.446Z,34464
2016-07-26T13:32:13.553Z,32064
2016-07-26T13:33:14.490Z,27872
2016-07-26T13:34:13.372Z,25344
2016-07-26T13:35:13.360Z,25696
2016-07-26T13:36:13.674Z,43744
2016-07-26T13:37:13.402Z,33696
2016-07-26T13:38:13.581Z,35424
2016-07-26T13:39:12.991Z,35936
2016-07-26T13:40:13.952Z,34880
2016-07-26T13:41:12.936Z,31456
2016-07-26T13:42:12.928Z,27936
2016-07-26T13:43:12.917Z,25440
2016-07-26T13:44:12.917Z,23936